Time;durP1;ratioP1;P1;durP2;ratioP2;P2;SDS_P1;SDS_P2;PMS_P1;PMS_P2;Temp;Humidity;BMP_temperature;BMP_pressure;BME280_temperature;BME280_humidity;BME280_pressure;Samples;Min_cycle;Max_cycle;Signal;HPM_P1;HPM_P2
2023/09/05 00:01:03;;;;;;;9.55;2.75;;;27.20;52.20;;;;;;7592300;23;20739;-72
2023/09/05 00:04:04;;;;;;;4.18;2.83;;;27.10;52.00;;;;;;7593181;23;20030;-72
2023/09/05 00:07:05;;;;;;;4.07;3.00;;;27.10;51.90;;;;;;7592295;23;20160;-74
2023/09/05 00:10:10;;;;;;;7.88;3.03;;;27.10;52.00;;;;;;7593294;23;20013;-73
2023/09/05 00:13:11;;;;;;;4.32;2.92;;;27.00;51.90;;;;;;7566832;23;20017;-74
2023/09/05 00:16:12;;;;;;;4.88;3.10;;;27.00;52.00;;;;;;7593144;23;20471;-73
2023/09/05 00:19:13;;;;;;;3.97;3.08;;;27.00;52.00;;;;;;7566950;23;20040;-73
2023/09/05 00:22:14;;;;;;;5.85;3.75;;;27.00;52.10;;;;;;7592739;23;20085;-73
2023/09/05 00:25:15;;;;;;;9.43;2.80;;;27.00;52.10;;;;;;7593065;23;20021;-73
2023/09/05 00:28:18;;;;;;;7.93;3.00;;;26.90;52.00;;;;;;7566271;23;20014;-74
2023/09/05 00:31:19;;;;;;;8.15;3.13;;;27.00;52.00;;;;;;7592612;23;20334;-73
2023/09/05 00:34:20;;;;;;;4.13;2.95;;;27.00;52.10;;;;;;7592711;23;20014;-73
2023/09/05 00:37:24;;;;;;;7.47;2.65;;;27.00;52.30;;;;;;7592742;23;20039;-73
2023/09/05 00:40:26;;;;;;;5.03;2.75;;;27.00;52.40;;;;;;7565746;23;20089;-74
2023/09/05 00:43:27;;;;;;;8.85;2.72;;;26.90;52.50;;;;;;7542198;23;20014;-72
2023/09/05 00:46:32;;;;;;;7.82;2.78;;;26.90;52.80;;;;;;7592420;23;20013;-72
2023/09/05 00:49:39;;;;;;;12.63;2.80;;;26.90;53.00;;;;;;7592276;23;20029;-72
2023/09/05 00:52:39;;;;;;;4.72;2.58;;;26.80;53.00;;;;;;7542859;23;20316;-73
2023/09/05 00:55:40;;;;;;;5.07;2.38;;;26.80;53.10;;;;;;7566299;23;20049;-74
2023/09/05 00:58:42;;;;;;;7.97;3.17;;;26.80;53.20;;;;;;7566472;23;20041;-73
2023/09/05 01:01:42;;;;;;;5.03;2.72;;;26.70;53.20;;;;;;7566056;23;20088;-73
2023/09/05 01:04:44;;;;;;;5.78;2.60;;;26.70;53.30;;;;;;7592471;23;20104;-72
2023/09/05 01:07:55;;;;;;;5.28;2.92;;;26.70;53.30;;;;;;7592513;23;20045;-73
2023/09/05 01:11:08;;;;;;;5.65;2.95;;;26.70;53.40;;;;;;7591783;23;20018;-72
2023/09/05 01:14:08;;;;;;;8.80;3.00;;;26.60;53.90;;;;;;7541702;23;20009;-72
2023/09/05 01:17:09;;;;;;;5.90;3.13;;;26.50;53.30;;;;;;7565350;23;20020;-73
2023/09/05 01:20:11;;;;;;;5.45;3.42;;;26.50;53.50;;;;;;7591468;23;20264;-72
2023/09/05 01:23:17;;;;;;;4.25;2.92;;;26.50;53.50;;;;;;7592512;23;20002;-73
2023/09/05 01:26:19;;;;;;;3.45;2.92;;;26.40;53.50;;;;;;7594260;23;20029;-73
2023/09/05 01:29:29;;;;;;;8.27;3.28;;;26.30;53.40;;;;;;7594522;23;20174;-72
2023/09/05 01:32:31;;;;;;;4.72;2.70;;;26.30;53.30;;;;;;7568533;23;20306;-73
2023/09/05 01:35:32;;;;;;;7.18;3.50;;;26.30;53.50;;;;;;7594265;23;20081;-73
2023/09/05 01:38:33;;;;;;;4.45;2.88;;;26.30;53.60;;;;;;7594591;23;20400;-74
2023/09/05 01:41:34;;;;;;;3.95;2.65;;;26.30;53.70;;;;;;7594033;23;20619;-72
2023/09/05 01:44:36;;;;;;;3.70;2.75;;;26.20;53.70;;;;;;7568365;23;20033;-73
2023/09/05 01:47:37;;;;;;;5.63;2.63;;;26.20;53.80;;;;;;7594528;23;20064;-73
2023/09/05 01:50:38;;;;;;;4.45;3.10;;;26.10;53.70;;;;;;7568033;23;20014;-73
2023/09/05 01:53:39;;;;;;;4.07;3.10;;;26.10;53.70;;;;;;7544420;23;20020;-73
2023/09/05 01:56:40;;;;;;;4.75;2.90;;;26.00;53.80;;;;;;7594319;23;20018;-74
2023/09/05 01:59:41;;;;;;;5.20;2.67;;;26.00;53.80;;;;;;7594512;23;20065;-73
2023/09/05 02:02:41;;;;;;;5.72;2.67;;;26.10;53.80;;;;;;7568578;23;20038;-73
2023/09/05 02:05:43;;;;;;;5.55;3.22;;;26.10;53.60;;;;;;7567324;23;20018;-72
2023/09/05 02:08:46;;;;;;;4.82;2.67;;;26.00;53.60;;;;;;7593655;23;20395;-72
2023/09/05 02:11:47;;;;;;;11.52;2.53;;;26.00;53.50;;;;;;7567226;23;20022;-75
2023/09/05 02:14:47;;;;;;;11.23;3.05;;;26.00;53.40;;;;;;7567337;23;20068;-74
2023/09/05 02:17:48;;;;;;;3.67;2.55;;;26.00;53.40;;;;;;7567166;23;20006;-72
2023/09/05 02:20:49;;;;;;;3.28;2.30;;;25.90;53.10;;;;;;7594173;23;20013;-72
2023/09/05 02:23:50;;;;;;;5.70;2.40;;;25.90;52.80;;;;;;7594297;23;20036;-72
2023/09/05 02:26:53;;;;;;;5.90;2.53;;;25.90;52.80;;;;;;7594110;23;20297;-73
2023/09/05 02:29:58;;;;;;;2.70;2.45;;;25.90;52.70;;;;;;7567760;23;20020;-73
2023/09/05 02:32:59;;;;;;;3.97;2.72;;;25.80;52.60;;;;;;7594178;23;20081;-73
2023/09/05 02:36:08;;;;;;;4.97;2.83;;;25.90;52.90;;;;;;7567011;23;20071;-73
2023/09/05 02:39:09;;;;;;;5.20;2.85;;;25.80;53.50;;;;;;7594014;23;20255;-72
2023/09/05 02:42:10;;;;;;;3.75;2.60;;;25.80;54.10;;;;;;7567419;23;20076;-72
2023/09/05 02:45:12;;;;;;;5.40;2.78;;;25.70;54.60;;;;;;7567402;23;20099;-74
2023/09/05 02:48:12;;;;;;;4.80;2.50;;;25.70;55.10;;;;;;7567572;23;20017;-72
2023/09/05 02:51:14;;;;;;;3.03;2.35;;;25.60;55.50;;;;;;7567350;23;20048;-73
2023/09/05 02:54:14;;;;;;;4.10;2.65;;;25.60;55.80;;;;;;7594338;23;20009;-73
2023/09/05 02:57:15;;;;;;;4.78;3.13;;;25.50;55.80;;;;;;7593825;23;20017;-73
2023/09/05 03:00:19;;;;;;;5.78;2.85;;;25.50;56.00;;;;;;7593558;23;20185;-72
2023/09/05 03:03:20;;;;;;;3.83;2.78;;;25.40;56.20;;;;;;7593632;23;20014;-74
2023/09/05 03:06:21;;;;;;;5.22;2.92;;;25.40;56.50;;;;;;7593521;23;20054;-72
2023/09/05 03:09:22;;;;;;;4.05;2.63;;;25.30;56.80;;;;;;7593892;23;20134;-72
2023/09/05 03:12:23;;;;;;;5.90;3.20;;;25.30;57.10;;;;;;7568026;23;20045;-72
2023/09/05 03:15:25;;;;;;;6.03;2.70;;;25.20;57.20;;;;;;7594176;23;20014;-72
2023/09/05 03:18:26;;;;;;;7.72;2.33;;;25.20;57.40;;;;;;7567082;23;20014;-73
2023/09/05 03:21:27;;;;;;;4.50;2.95;;;25.10;57.40;;;;;;7566877;23;20013;-74
2023/09/05 03:24:29;;;;;;;6.53;3.25;;;25.10;57.50;;;;;;7543335;23;20021;-72
2023/09/05 03:27:30;;;;;;;3.53;2.50;;;25.10;57.70;;;;;;7566833;23;20014;-72
2023/09/05 03:30:31;;;;;;;9.07;3.03;;;25.10;57.70;;;;;;7566543;23;20050;-72
2023/09/05 03:33:33;;;;;;;3.28;2.60;;;25.10;57.80;;;;;;7566937;23;20085;-72
2023/09/05 03:36:35;;;;;;;3.72;2.65;;;24.90;57.70;;;;;;7566565;23;20492;-73
2023/09/05 03:39:36;;;;;;;7.03;3.17;;;25.00;57.80;;;;;;7593489;23;20006;-73
2023/09/05 03:42:38;;;;;;;8.68;3.13;;;25.00;57.80;;;;;;7567291;23;20355;-72
2023/09/05 03:45:38;;;;;;;6.22;2.85;;;25.00;57.80;;;;;;7592998;23;20112;-72
2023/09/05 03:48:39;;;;;;;8.00;2.92;;;25.00;57.90;;;;;;7566716;23;20021;-72
2023/09/05 03:51:40;;;;;;;4.90;3.15;;;25.00;57.90;;;;;;7593115;23;20115;-73
2023/09/05 03:54:41;;;;;;;7.15;2.95;;;24.90;57.80;;;;;;7566759;23;20009;-74
2023/09/05 03:57:43;;;;;;;9.38;2.97;;;25.00;57.90;;;;;;7593363;23;20061;-73
2023/09/05 04:00:44;;;;;;;5.47;3.25;;;24.90;57.90;;;;;;7593069;23;20002;-74
2023/09/05 04:03:46;;;;;;;4.70;2.67;;;25.00;57.90;;;;;;7593124;23;20006;-74
2023/09/05 04:06:46;;;;;;;7.00;2.47;;;24.90;57.90;;;;;;7592332;23;20044;-73
2023/09/05 04:09:48;;;;;;;5.60;3.13;;;25.00;58.00;;;;;;7565654;23;20022;-71
2023/09/05 04:12:50;;;;;;;4.43;2.70;;;25.00;58.00;;;;;;7566002;23;20132;-72
2023/09/05 04:15:51;;;;;;;4.55;3.08;;;25.00;57.90;;;;;;7565640;23;20057;-72
2023/09/05 04:18:52;;;;;;;6.03;3.05;;;25.00;58.00;;;;;;7566131;23;20144;-74
2023/09/05 04:21:52;;;;;;;5.93;3.15;;;24.90;57.90;;;;;;7566403;23;20010;-72
2023/09/05 04:24:59;;;;;;;6.20;3.30;;;24.90;58.00;;;;;;7566740;23;20384;-74
2023/09/05 04:28:01;;;;;;;5.38;3.22;;;24.80;58.00;;;;;;7566838;23;20021;-73
2023/09/05 04:31:03;;;;;;;8.02;2.63;;;24.80;58.20;;;;;;7566583;23;20038;-72
2023/09/05 04:34:04;;;;;;;6.32;2.80;;;24.80;58.30;;;;;;7566876;23;20041;-71
2023/09/05 04:37:06;;;;;;;10.07;3.83;;;24.70;58.30;;;;;;7566960;23;20116;-73
2023/09/05 04:40:08;;;;;;;5.18;3.55;;;24.70;58.50;;;;;;7566581;23;20021;-73
2023/09/05 04:43:09;;;;;;;4.57;2.80;;;24.60;58.40;;;;;;7566064;23;20010;-73
2023/09/05 04:46:09;;;;;;;7.40;3.63;;;24.60;58.60;;;;;;7592793;23;20387;-72
2023/09/05 04:49:11;;;;;;;6.80;3.47;;;24.60;58.70;;;;;;7566622;23;20040;-73
2023/09/05 04:52:14;;;;;;;5.50;3.33;;;24.50;58.80;;;;;;7567383;23;20014;-73
2023/09/05 04:55:18;;;;;;;5.40;3.50;;;24.50;59.00;;;;;;7567403;23;20006;-72
2023/09/05 04:58:19;;;;;;;5.30;3.17;;;24.50;59.70;;;;;;7594041;23;20010;-73
2023/09/05 05:01:20;;;;;;;8.82;3.72;;;24.40;59.20;;;;;;7595229;23;20017;-72
2023/09/05 05:04:22;;;;;;;6.93;3.45;;;24.40;59.30;;;;;;7568605;23;20020;-73
2023/09/05 05:07:23;;;;;;;6.05;2.70;;;24.40;59.40;;;;;;7568642;23;20033;-72
2023/09/05 05:10:23;;;;;;;5.97;3.97;;;24.30;59.50;;;;;;7594536;23;20100;-73
2023/09/05 05:13:24;;;;;;;7.45;3.53;;;24.40;59.60;;;;;;7594898;23;20002;-73
2023/09/05 05:16:25;;;;;;;8.00;3.80;;;24.30;59.60;;;;;;7595520;23;20092;-73
2023/09/05 05:19:26;;;;;;;7.82;3.08;;;24.30;59.60;;;;;;7572312;23;20029;-81
2023/09/05 05:22:27;;;;;;;4.85;3.30;;;24.40;59.50;;;;;;7549742;23;20077;-79
2023/09/05 05:34:37;;;;;;;6.20;3.65;;;24.50;59.40;;;;;;7597111;23;20060;-81
2023/09/05 05:59:08;;;;;;;9.23;3.40;;;24.20;60.00;;;;;;7610896;23;20265;-78
2023/09/05 06:02:55;;;;;;;5.60;3.33;;;24.20;60.30;;;;;;7672974;23;20044;-79
2023/09/05 07:01:44;;;;;;;10.48;3.22;;;25.00;58.70;;;;;;7598991;23;20030;-78
2023/09/05 07:04:45;;;;;;;5.72;3.13;;;25.10;58.50;;;;;;7571182;23;20077;-79
2023/09/05 07:07:46;;;;;;;5.05;3.20;;;25.20;58.30;;;;;;7570213;23;20018;-78
2023/09/05 07:10:48;;;;;;;15.95;3.65;;;25.30;58.10;;;;;;7598499;23;20131;-78
2023/09/05 07:13:49;;;;;;;4.30;2.88;;;25.30;57.50;;;;;;7576744;23;20448;-78
2023/09/05 07:16:50;;;;;;;8.88;2.88;;;25.40;57.20;;;;;;7601426;23;20020;-78
2023/09/05 07:19:51;;;;;;;5.60;3.08;;;25.50;57.00;;;;;;7572883;23;20009;-77
2023/09/05 07:22:52;;;;;;;4.55;2.70;;;25.50;56.70;;;;;;7599541;23;20010;-78
2023/09/05 07:25:53;;;;;;;5.63;3.03;;;25.60;56.50;;;;;;7576035;23;20017;-79
2023/09/05 07:28:54;;;;;;;5.90;2.75;;;25.70;56.10;;;;;;7603052;23;20018;-81
2023/09/05 07:31:55;;;;;;;10.88;3.20;;;25.70;55.70;;;;;;7600939;23;20010;-79
2023/09/05 07:34:59;;;;;;;7.05;3.30;;;25.80;55.60;;;;;;7575454;23;20439;-79
2023/09/05 07:38:00;;;;;;;8.10;3.60;;;26.00;55.30;;;;;;7575089;23;20009;-79
2023/09/05 07:41:03;;;;;;;9.40;3.17;;;26.10;54.90;;;;;;7576563;23;20014;-78
2023/09/05 07:44:04;;;;;;;6.65;2.83;;;26.20;54.40;;;;;;7575673;23;20061;-78
2023/09/05 07:47:05;;;;;;;4.10;2.83;;;26.30;54.40;;;;;;7549417;23;20013;-78
2023/09/05 07:50:06;;;;;;;7.05;3.20;;;26.50;54.20;;;;;;7599716;23;20072;-79
2023/09/05 07:53:06;;;;;;;7.85;3.30;;;26.50;53.90;;;;;;7573411;23;20135;-82
2023/09/05 07:56:07;;;;;;;4.40;2.92;;;26.60;53.60;;;;;;7575152;23;20029;-79
2023/09/05 07:59:08;;;;;;;6.18;2.90;;;26.70;53.40;;;;;;7601375;23;20041;-79
2023/09/05 08:02:10;;;;;;;6.60;3.63;;;26.80;53.20;;;;;;7601271;23;20010;-77
2023/09/05 08:05:12;;;;;;;8.07;3.50;;;26.90;53.00;;;;;;7600456;23;20321;-78
2023/09/05 08:08:15;;;;;;;8.98;3.20;;;27.10;52.70;;;;;;7575186;23;20017;-80
2023/09/05 08:11:16;;;;;;;7.50;3.42;;;27.20;52.30;;;;;;7601583;23;20755;-77
2023/09/05 08:14:16;;;;;;;4.40;2.78;;;27.40;52.00;;;;;;7574976;23;20014;-79
2023/09/05 08:17:17;;;;;;;7.78;2.70;;;27.50;51.30;;;;;;7573139;23;20104;-79
2023/09/05 08:20:18;;;;;;;9.82;3.00;;;27.70;51.10;;;;;;7599846;23;20009;-78
2023/09/05 08:23:20;;;;;;;7.03;3.45;;;27.90;50.60;;;;;;7598366;23;20017;-79
2023/09/05 08:26:21;;;;;;;4.43;2.47;;;28.00;50.10;;;;;;7574979;23;20097;-78
2023/09/05 08:29:23;;;;;;;9.32;3.00;;;28.10;49.90;;;;;;7573992;23;20081;-78
2023/09/05 08:32:25;;;;;;;10.48;4.00;;;28.20;49.40;;;;;;7599772;23;20021;-80
2023/09/05 08:35:25;;;;;;;10.00;3.38;;;28.30;48.90;;;;;;7599778;23;20010;-79
2023/09/05 08:38:26;;;;;;;6.40;2.67;;;28.40;48.70;;;;;;7575674;23;20112;-79
2023/09/05 08:41:27;;;;;;;9.55;3.78;;;28.40;48.30;;;;;;7601320;23;20028;-81
2023/09/05 08:44:28;;;;;;;7.57;3.20;;;28.50;48.30;;;;;;7600746;23;20062;-78
2023/09/05 08:47:29;;;;;;;8.98;2.72;;;28.60;48.20;;;;;;7573850;23;20018;-79
2023/09/05 08:50:34;;;;;;;4.97;3.05;;;28.60;47.70;;;;;;7573150;23;20038;-80
2023/09/05 08:53:41;;;;;;;8.25;3.00;;;28.70;47.50;;;;;;7601003;23;20018;-78
2023/09/05 08:56:42;;;;;;;7.68;2.88;;;28.80;47.40;;;;;;7574075;23;20013;-78
2023/09/05 08:59:43;;;;;;;3.60;2.67;;;28.90;47.20;;;;;;7573317;23;20093;-78
2023/09/05 09:02:44;;;;;;;6.20;2.85;;;29.00;46.50;;;;;;7574060;23;20010;-78
2023/09/05 09:05:46;;;;;;;4.50;2.85;;;29.00;46.20;;;;;;7599372;23;20021;-79
2023/09/05 09:08:47;;;;;;;6.53;3.10;;;29.00;45.80;;;;;;7573898;23;20010;-79
2023/09/05 09:11:59;;;;;;;2.90;2.30;;;29.10;45.90;;;;;;7600249;23;20029;-80
2023/09/05 09:15:14;;;;;;;8.90;2.60;;;29.20;45.60;;;;;;7573587;23;20741;-79
2023/09/05 09:18:19;;;;;;;8.18;4.28;;;29.30;45.20;;;;;;7600211;23;20017;-79
2023/09/05 09:21:21;;;;;;;5.55;2.83;;;29.40;44.90;;;;;;7598705;23;20014;-79
2023/09/05 09:24:22;;;;;;;6.55;2.40;;;29.50;44.30;;;;;;7572585;23;20392;-78
2023/09/05 09:27:23;;;;;;;14.63;3.28;;;29.60;44.30;;;;;;7573214;23;20025;-79
2023/09/05 09:30:27;;;;;;;7.18;3.45;;;29.60;43.90;;;;;;7573136;23;20021;-80
2023/09/05 09:33:31;;;;;;;10.00;4.47;;;29.70;43.50;;;;;;7600551;23;20112;-79
2023/09/05 09:36:37;;;;;;;4.43;2.60;;;29.80;42.70;;;;;;7574439;23;20014;-79
2023/09/05 09:39:37;;;;;;;12.90;4.72;;;29.90;42.80;;;;;;7572634;23;20356;-77
2023/09/05 09:42:38;;;;;;;11.50;3.80;;;30.00;42.30;;;;;;7572187;23;20014;-78
2023/09/05 09:45:39;;;;;;;9.40;3.80;;;30.00;41.70;;;;;;7574349;23;20013;-79
2023/09/05 09:48:43;;;;;;;4.47;3.00;;;30.00;41.70;;;;;;7573926;23;20158;-77
2023/09/05 09:51:45;;;;;;;5.00;2.90;;;30.20;42.00;;;;;;7598242;23;20095;-77
2023/09/05 09:54:47;;;;;;;3.78;2.70;;;30.10;41.90;;;;;;7599757;23;20064;-77
2023/09/05 09:58:00;;;;;;;5.57;2.88;;;30.20;41.80;;;;;;7574671;23;20395;-77
2023/09/05 10:01:03;;;;;;;6.05;2.60;;;30.30;41.70;;;;;;7600540;23;20029;-79
2023/09/05 10:04:05;;;;;;;7.05;2.63;;;30.40;41.60;;;;;;7603207;23;20358;-81
2023/09/05 10:07:06;;;;;;;6.78;3.35;;;30.50;41.60;;;;;;7600802;23;20020;-78
2023/09/05 10:10:15;;;;;;;9.27;3.10;;;30.60;41.60;;;;;;7600932;23;20107;-78
2023/09/05 10:13:16;;;;;;;4.80;2.92;;;30.70;41.60;;;;;;7603636;23;20424;-79
2023/09/05 10:16:19;;;;;;;7.30;3.15;;;30.80;41.70;;;;;;7576060;23;20699;-80
2023/09/05 10:19:21;;;;;;;6.13;2.67;;;30.80;41.90;;;;;;7603993;23;20013;-78
2023/09/05 10:22:23;;;;;;;5.82;2.72;;;30.90;42.10;;;;;;7577484;23;20450;-79
2023/09/05 10:25:26;;;;;;;4.07;2.75;;;30.90;42.30;;;;;;7576521;23;20029;-80
2023/09/05 10:28:30;;;;;;;6.05;2.97;;;30.90;42.30;;;;;;7576976;23;20009;-79
2023/09/05 10:31:31;;;;;;;11.63;2.88;;;31.00;42.30;;;;;;7576512;23;20037;-80
2023/09/05 10:34:47;;;;;;;7.25;2.90;;;31.10;42.10;;;;;;7601577;23;20018;-79
2023/09/05 10:37:56;;;;;;;10.52;3.22;;;31.10;41.70;;;;;;7574599;23;20009;-79
2023/09/05 10:40:57;;;;;;;10.90;3.10;;;31.20;41.50;;;;;;7575500;23;20209;-78
2023/09/05 10:44:01;;;;;;;6.07;3.25;;;31.40;41.30;;;;;;7603660;23;20021;-80
2023/09/05 10:47:26;;;;;;;6.43;3.03;;;31.60;40.80;;;;;;7576134;23;20116;-79
2023/09/05 10:50:27;;;;;;;14.63;3.42;;;31.80;40.60;;;;;;7577030;23;20131;-79
2023/09/05 10:53:27;;;;;;;3.38;2.67;;;32.10;40.20;;;;;;7577202;23;20129;-80
2023/09/05 10:56:43;;;;;;;4.28;2.78;;;32.30;40.10;;;;;;7603712;23;20088;-79
2023/09/05 10:59:45;;;;;;;5.25;2.75;;;32.60;39.60;;;;;;7576614;23;20098;-79
2023/09/05 11:02:47;;;;;;;4.72;2.85;;;32.80;39.20;;;;;;7553918;23;20344;-79
2023/09/05 11:05:48;;;;;;;6.65;2.47;;;33.10;38.50;;;;;;7576517;23;20393;-79
2023/09/05 11:09:06;;;;;;;11.27;2.60;;;33.40;37.70;;;;;;7603185;23;20108;-79
2023/09/05 11:12:07;;;;;;;5.88;2.28;;;33.60;37.00;;;;;;7602182;23;20020;-79
2023/09/05 11:15:08;;;;;;;3.05;2.33;;;34.00;36.40;;;;;;7577918;23;20068;-80
2023/09/05 11:18:14;;;;;;;5.53;2.35;;;34.30;35.70;;;;;;7605341;23;20045;-78
2023/09/05 11:21:25;;;;;;;6.93;2.70;;;34.50;34.80;;;;;;7575274;23;20014;-78
2023/09/05 11:24:31;;;;;;;10.35;2.50;;;34.90;34.20;;;;;;7599842;23;20459;-79
2023/09/05 11:27:32;;;;;;;4.80;2.40;;;35.10;33.90;;;;;;7600703;23;20014;-79
2023/09/05 11:30:37;;;;;;;4.32;2.47;;;35.40;33.20;;;;;;7574338;23;20366;-79
2023/09/05 11:33:38;;;;;;;7.78;2.42;;;35.60;32.60;;;;;;7602302;23;20030;-78
2023/09/05 11:36:38;;;;;;;11.93;2.97;;;35.80;32.50;;;;;;7601960;23;20136;-79
2023/09/05 11:39:39;;;;;;;3.50;2.00;;;36.10;32.50;;;;;;7601083;23;20042;-77
2023/09/05 11:42:40;;;;;;;2.72;2.00;;;36.50;32.20;;;;;;7600142;23;20006;-78
2023/09/05 11:45:43;;;;;;;5.85;2.30;;;36.80;31.10;;;;;;7574836;23;20298;-79
2023/09/05 11:48:47;;;;;;;7.18;2.60;;;37.10;30.70;;;;;;7601053;23;20013;-79
2023/09/05 11:51:48;;;;;;;3.22;1.90;;;37.30;30.20;;;;;;7602249;23;20024;-78
2023/09/05 11:54:50;;;;;;;6.45;2.92;;;37.40;29.90;;;;;;7575755;23;20005;-79
2023/09/05 11:57:52;;;;;;;2.72;2.10;;;37.60;29.50;;;;;;7575808;23;20076;-79
2023/09/05 12:00:54;;;;;;;6.30;2.47;;;37.80;29.20;;;;;;7574293;23;20498;-77
2023/09/05 12:04:05;;;;;;;7.25;2.08;;;37.90;29.00;;;;;;7597433;23;20006;-78
2023/09/05 12:07:06;;;;;;;5.20;1.90;;;38.10;28.80;;;;;;7572351;23;20010;-78
2023/09/05 12:10:09;;;;;;;3.22;2.15;;;38.10;28.60;;;;;;7549449;23;20097;-77
2023/09/05 12:13:10;;;;;;;5.82;2.53;;;38.30;28.50;;;;;;7599769;23;20025;-80
2023/09/05 12:16:16;;;;;;;7.68;2.35;;;38.50;28.30;;;;;;7573380;23;20013;-77
2023/09/05 12:19:17;;;;;;;5.30;2.25;;;38.80;28.00;;;;;;7573811;23;20061;-78
2023/09/05 12:22:25;;;;;;;7.13;2.53;;;39.10;27.70;;;;;;7573436;23;20006;-77
2023/09/05 12:25:28;;;;;;;3.05;2.00;;;39.50;27.20;;;;;;7597179;23;20743;-78
2023/09/05 12:28:30;;;;;;;4.75;2.55;;;40.00;27.20;;;;;;7599343;23;20125;-81
2023/09/05 12:31:32;;;;;;;3.20;1.88;;;40.10;26.60;;;;;;7572941;23;20471;-79
2023/09/05 12:34:33;;;;;;;3.58;2.03;;;40.50;26.20;;;;;;7573368;23;20033;-79
2023/09/05 12:37:34;;;;;;;2.58;2.00;;;40.80;25.70;;;;;;7572406;23;20018;-79
2023/09/05 12:40:35;;;;;;;4.55;2.03;;;41.00;25.40;;;;;;7573044;23;20060;-78
2023/09/05 12:43:36;;;;;;;9.00;2.55;;;41.20;25.40;;;;;;7573993;23;20073;-79
2023/09/05 12:46:37;;;;;;;7.20;2.30;;;41.40;25.20;;;;;;7598566;23;20022;-79
2023/09/05 12:49:38;;;;;;;5.28;2.10;;;41.80;24.80;;;;;;7597811;23;20020;-80
2023/09/05 12:52:43;;;;;;;5.40;2.00;;;42.20;24.40;;;;;;7571774;23;20017;-77
2023/09/05 12:55:45;;;;;;;2.55;1.80;;;42.50;24.20;;;;;;7597279;23;20070;-78
2023/09/05 12:58:45;;;;;;;6.43;2.03;;;43.00;24.00;;;;;;7597878;23;20026;-79
2023/09/05 13:01:46;;;;;;;3.30;2.33;;;43.40;23.50;;;;;;7571985;23;20034;-79
2023/09/05 13:04:47;;;;;;;10.25;2.45;;;43.80;23.20;;;;;;7570646;23;20137;-78
2023/09/05 13:07:48;;;;;;;5.53;2.28;;;44.40;22.90;;;;;;7572010;23;20073;-78
2023/09/05 13:10:50;;;;;;;3.33;2.00;;;44.80;22.60;;;;;;7571745;23;20324;-78
2023/09/05 13:13:52;;;;;;;9.25;2.08;;;45.20;22.30;;;;;;7547665;23;20036;-77
2023/09/05 13:16:52;;;;;;;2.13;1.92;;;45.50;21.90;;;;;;7598074;23;20010;-77
2023/09/05 13:19:54;;;;;;;6.30;1.73;;;45.80;21.80;;;;;;7598570;23;20017;-79
2023/09/05 13:22:54;;;;;;;6.47;2.00;;;45.70;21.60;;;;;;7551665;23;20077;-79
2023/09/05 13:25:55;;;;;;;2.30;1.65;;;45.50;21.50;;;;;;7599061;23;20083;-80
2023/09/05 13:28:56;;;;;;;2.55;1.95;;;45.50;21.50;;;;;;7574038;23;20074;-78
2023/09/05 13:31:57;;;;;;;2.75;1.92;;;45.50;21.50;;;;;;7572337;23;20014;-77
2023/09/05 13:34:58;;;;;;;3.88;1.90;;;45.70;21.50;;;;;;7573554;23;20044;-80
2023/09/05 13:37:58;;;;;;;3.13;1.92;;;46.00;21.10;;;;;;7572778;23;20030;-79
2023/09/05 13:40:59;;;;;;;22.42;2.25;;;45.80;21.00;;;;;;7574504;23;20032;-80
2023/09/05 13:44:00;;;;;;;6.30;2.17;;;45.50;21.20;;;;;;7572714;23;20299;-79
2023/09/05 13:47:01;;;;;;;2.10;1.85;;;45.50;21.10;;;;;;7599129;23;20013;-79
2023/09/05 13:50:03;;;;;;;3.92;2.22;;;45.40;21.10;;;;;;7598275;23;20014;-78
2023/09/05 13:53:04;;;;;;;5.25;2.03;;;45.10;21.40;;;;;;7571463;23;20088;-78
2023/09/05 13:56:05;;;;;;;3.70;2.22;;;45.00;21.40;;;;;;7569693;23;20014;-78
2023/09/05 13:59:06;;;;;;;5.60;1.65;;;44.30;21.90;;;;;;7570980;23;20010;-77
2023/09/05 14:02:08;;;;;;;3.75;2.17;;;43.20;22.80;;;;;;7597800;23;20589;-79
2023/09/05 14:05:10;;;;;;;3.58;2.00;;;42.00;23.70;;;;;;7548696;23;20092;-76
2023/09/05 14:08:11;;;;;;;9.95;2.05;;;40.90;24.60;;;;;;7567608;23;20014;-78
2023/09/05 14:11:12;;;;;;;4.15;2.30;;;39.80;25.50;;;;;;7599135;23;20014;-79
2023/09/05 14:14:15;;;;;;;2.75;2.00;;;39.00;26.40;;;;;;7570198;23;20072;-79
2023/09/05 14:17:16;;;;;;;3.78;2.30;;;38.10;27.20;;;;;;7573944;23;20014;-78
2023/09/05 14:20:17;;;;;;;6.32;2.30;;;37.40;28.00;;;;;;7571346;23;20013;-79
2023/09/05 14:23:21;;;;;;;10.82;2.53;;;36.80;28.50;;;;;;7598614;23;20137;-79
2023/09/05 14:26:24;;;;;;;3.00;2.25;;;36.40;28.90;;;;;;7571305;23;20404;-80
2023/09/05 14:29:25;;;;;;;3.10;1.95;;;36.00;29.40;;;;;;7597761;23;20009;-79
2023/09/05 14:32:25;;;;;;;5.20;2.30;;;35.80;29.70;;;;;;7568827;23;20034;-79
2023/09/05 14:35:29;;;;;;;2.25;2.03;;;35.50;30.00;;;;;;7545503;23;20014;-78
2023/09/05 14:38:32;;;;;;;3.63;2.00;;;35.30;30.30;;;;;;7566650;23;20424;-78
2023/09/05 14:41:33;;;;;;;4.32;1.95;;;35.20;30.60;;;;;;7568522;23;20071;-78
2023/09/05 14:44:35;;;;;;;4.43;2.35;;;35.00;30.90;;;;;;7596834;23;20740;-78
2023/09/05 14:47:40;;;;;;;6.13;2.15;;;34.80;31.10;;;;;;7597519;23;20090;-78
2023/09/05 14:50:41;;;;;;;9.65;2.33;;;34.70;31.30;;;;;;7571810;23;20029;-79
2023/09/05 14:53:41;;;;;;;3.20;2.13;;;34.60;31.40;;;;;;7572734;23;20014;-78
2023/09/05 14:56:43;;;;;;;7.20;2.20;;;34.50;31.50;;;;;;7571384;23;20119;-79
2023/09/05 14:59:44;;;;;;;3.72;2.45;;;34.50;31.70;;;;;;7572660;23;20084;-79
2023/09/05 15:02:45;;;;;;;4.80;2.40;;;34.40;31.80;;;;;;7548428;23;20016;-78
2023/09/05 15:05:46;;;;;;;4.22;2.05;;;34.40;32.00;;;;;;7548699;23;20018;-80
2023/09/05 15:08:46;;;;;;;4.45;2.17;;;34.40;32.10;;;;;;7598734;23;20735;-78
2023/09/05 15:11:47;;;;;;;6.47;2.15;;;34.30;32.10;;;;;;7598032;23;20117;-78
2023/09/05 15:14:48;;;;;;;3.75;2.40;;;34.30;32.30;;;;;;7572874;23;20316;-79
2023/09/05 15:17:51;;;;;;;3.05;2.03;;;34.30;32.30;;;;;;7598137;23;20081;-78
2023/09/05 15:20:55;;;;;;;4.07;2.20;;;34.30;32.40;;;;;;7548558;23;20010;-79
2023/09/05 15:23:57;;;;;;;4.15;2.65;;;34.30;32.50;;;;;;7572236;23;20010;-79
2023/09/05 15:27:05;;;;;;;3.45;2.33;;;34.20;32.50;;;;;;7571517;23;20009;-78
2023/09/05 15:30:11;;;;;;;6.65;2.30;;;34.20;32.50;;;;;;7597302;23;20010;-77
2023/09/05 15:33:12;;;;;;;7.43;2.00;;;34.20;32.50;;;;;;7571839;23;20386;-79
2023/09/05 15:36:13;;;;;;;3.65;2.10;;;34.20;32.50;;;;;;7569690;23;20028;-79
2023/09/05 15:39:14;;;;;;;4.43;2.35;;;34.10;32.60;;;;;;7569680;23;20006;-79
2023/09/05 15:42:14;;;;;;;5.00;2.10;;;34.10;32.60;;;;;;7596164;23;20010;-78
2023/09/05 15:45:18;;;;;;;7.55;2.50;;;34.10;32.70;;;;;;7545371;23;20022;-77
2023/09/05 15:48:19;;;;;;;4.93;2.65;;;34.10;32.70;;;;;;7592011;23;20017;-78
2023/09/05 15:51:21;;;;;;;3.00;2.45;;;34.10;32.70;;;;;;7595181;23;20021;-78
2023/09/05 15:54:23;;;;;;;6.43;2.25;;;34.10;32.70;;;;;;7596070;23;20009;-78
2023/09/05 15:57:25;;;;;;;5.30;2.50;;;34.20;32.70;;;;;;7595469;23;20014;-78
2023/09/05 16:00:25;;;;;;;4.53;2.20;;;34.20;32.60;;;;;;7568426;23;20080;-79
2023/09/05 16:03:27;;;;;;;5.72;2.25;;;34.30;32.60;;;;;;7567543;23;20014;-78
2023/09/05 16:06:28;;;;;;;6.05;2.55;;;34.50;32.50;;;;;;7566627;23;20010;-77
2023/09/05 16:09:30;;;;;;;3.08;1.95;;;35.30;31.40;;;;;;7592158;23;20013;-78
2023/09/05 16:12:31;;;;;;;3.95;2.63;;;36.60;29.80;;;;;;7567232;23;20066;-79
2023/09/05 16:15:32;;;;;;;5.07;2.30;;;37.80;28.50;;;;;;7594601;23;20085;-77
2023/09/05 16:18:35;;;;;;;5.75;2.25;;;38.80;27.40;;;;;;7567532;23;20010;-78
2023/09/05 16:21:37;;;;;;;3.97;2.03;;;39.40;26.70;;;;;;7569189;23;20017;-78
2023/09/05 16:24:38;;;;;;;12.93;2.47;;;40.10;26.20;;;;;;7594041;23;20620;-76
2023/09/05 16:27:39;;;;;;;7.63;2.30;;;40.60;25.60;;;;;;7567666;23;20010;-81
2023/09/05 16:30:40;;;;;;;7.93;2.33;;;40.90;25.10;;;;;;7566446;23;20167;-77
2023/09/05 16:33:42;;;;;;;4.95;2.00;;;41.00;24.70;;;;;;7567745;23;20020;-79
2023/09/05 16:36:43;;;;;;;4.88;2.33;;;40.80;24.70;;;;;;7595540;23;20145;-78
2023/09/05 16:39:44;;;;;;;7.20;2.58;;;39.90;25.40;;;;;;7569152;23;20030;-78
2023/09/05 16:42:45;;;;;;;5.45;2.53;;;38.80;26.30;;;;;;7569399;23;20029;-78
2023/09/05 16:45:51;;;;;;;3.17;2.08;;;37.80;27.20;;;;;;7569876;23;20014;-78
2023/09/05 16:48:52;;;;;;;3.53;2.50;;;37.00;28.00;;;;;;7569411;23;20101;-80
2023/09/05 16:51:53;;;;;;;3.35;2.58;;;36.30;28.70;;;;;;7567990;23;20025;-78
2023/09/05 16:54:54;;;;;;;6.80;2.40;;;35.70;29.30;;;;;;7569424;23;20049;-77
2023/09/05 16:57:54;;;;;;;5.32;2.63;;;35.20;29.80;;;;;;7545729;23;20006;-79
2023/09/05 17:00:56;;;;;;;5.82;2.17;;;34.80;30.30;;;;;;7597299;23;20045;-78
2023/09/05 17:03:56;;;;;;;6.60;3.78;;;34.50;30.70;;;;;;7571614;23;20018;-78
2023/09/05 17:06:57;;;;;;;3.75;2.55;;;34.30;31.20;;;;;;7570923;23;20089;-79
2023/09/05 17:09:58;;;;;;;9.32;3.22;;;34.00;31.70;;;;;;7598394;23;20085;-77
2023/09/05 17:12:59;;;;;;;5.93;2.63;;;33.80;32.10;;;;;;7571308;23;20370;-77